createdAt,value
2023-11-14T00:01:02.308Z,61.75
2023-11-14T00:06:21.025Z,61.60
2023-11-14T00:11:25.610Z,61.55
2023-11-14T00:16:28.427Z,61.24
2023-11-14T00:21:31.316Z,60.52
2023-11-14T00:26:34.065Z,60.41
2023-11-14T00:31:36.842Z,63.77
2023-11-14T00:36:39.651Z,61.29
2023-11-14T00:41:42.504Z,58.44
2023-11-14T00:46:45.225Z,62.88
2023-11-14T00:51:48.042Z,61.60
2023-11-14T00:56:51.269Z,56.33
2023-11-14T01:01:54.142Z,60.54
2023-11-14T01:06:57.076Z,64.46
2023-11-14T01:11:59.827Z,60.41
2023-11-14T01:17:02.652Z,58.03
2023-11-14T01:22:05.546Z,62.87
2023-11-14T01:27:08.671Z,60.32
2023-11-14T01:32:11.521Z,61.38
2023-11-14T01:37:14.733Z,64.23
2023-11-14T01:42:17.432Z,63.14
2023-11-14T01:47:20.658Z,63.34
2023-11-14T01:52:24.125Z,63.10
2023-11-14T01:57:26.976Z,63.40
2023-11-14T02:02:29.922Z,63.81
2023-11-14T02:07:32.945Z,64.34
2023-11-14T02:12:35.673Z,64.62
2023-11-14T02:17:40.006Z,63.59
2023-11-14T02:22:43.257Z,63.50
2023-11-14T02:27:46.036Z,62.73
2023-11-14T02:32:48.739Z,61.87
2023-11-14T02:37:51.599Z,62.19
2023-11-14T02:42:55.217Z,62.17
2023-11-14T02:47:58.039Z,62.49
2023-11-14T02:53:00.938Z,62.27
2023-11-14T02:58:03.885Z,61.98
2023-11-14T03:03:06.739Z,63.16
2023-11-14T03:08:09.798Z,63.59
2023-11-14T03:13:12.823Z,63.79
2023-11-14T03:18:15.864Z,64.66
2023-11-14T03:23:18.571Z,65.32
2023-11-14T03:28:21.249Z,64.53
2023-11-14T03:33:24.370Z,64.32
2023-11-14T03:38:27.122Z,64.91
2023-11-14T03:43:29.819Z,65.78
2023-11-14T03:48:32.830Z,65.70
2023-11-14T03:53:35.550Z,65.75
2023-11-14T03:58:39.159Z,65.76
2023-11-14T04:03:42.009Z,66.30
2023-11-14T04:08:45.105Z,66.39
2023-11-14T04:13:49.096Z,67.55
2023-11-14T04:18:52.481Z,67.11
2023-11-14T04:23:55.245Z,66.00
2023-11-14T04:28:58.144Z,65.88
2023-11-14T04:34:01.991Z,66.45
2023-11-14T04:39:05.621Z,66.67
2023-11-14T04:44:08.348Z,68.47
2023-11-14T04:49:11.782Z,69.67
2023-11-14T04:54:14.523Z,69.27
2023-11-14T04:59:17.684Z,68.74
2023-11-14T05:04:20.470Z,68.83
2023-11-14T05:09:23.312Z,68.83
2023-11-14T05:14:26.037Z,69.12
2023-11-14T05:19:28.824Z,69.01
2023-11-14T05:24:31.541Z,68.82
2023-11-14T05:29:36.879Z,68.65
2023-11-14T05:34:40.335Z,68.34
2023-11-14T05:39:43.194Z,67.30
2023-11-14T05:44:45.912Z,66.81
2023-11-14T05:49:49.648Z,68.10
2023-11-14T05:54:52.625Z,68.80
2023-11-14T05:59:57.080Z,67.49
2023-11-14T06:05:00.011Z,67.50
2023-11-14T06:10:04.978Z,67.05
2023-11-14T06:15:08.906Z,67.14
2023-11-14T06:20:12.668Z,68.64
2023-11-14T06:25:15.461Z,68.02
2023-11-14T06:30:18.196Z,68.17
2023-11-14T06:35:20.951Z,67.27
2023-11-14T06:40:23.953Z,66.67
2023-11-14T06:45:26.803Z,66.40
2023-11-14T06:50:37.733Z,65.64
2023-11-14T06:55:47.055Z,64.91
2023-11-14T07:00:50.048Z,65.25
2023-11-14T07:05:52.781Z,65.14
2023-11-14T07:10:55.554Z,64.63
2023-11-14T07:15:58.270Z,64.40
2023-11-14T07:21:02.493Z,64.76
2023-11-14T07:26:06.363Z,64.83
2023-11-14T07:31:09.485Z,64.66
2023-11-14T07:36:12.323Z,64.87
2023-11-14T07:41:15.145Z,64.15
2023-11-14T07:46:19.003Z,64.10
2023-11-14T07:51:22.094Z,64.20
2023-11-14T07:56:25.988Z,64.10
2023-11-14T08:01:28.941Z,63.16
2023-11-14T08:06:31.996Z,63.07
2023-11-14T08:11:39.223Z,63.01
2023-11-14T08:16:42.163Z,63.08
2023-11-14T08:21:45.255Z,62.93
2023-11-14T08:26:48.365Z,62.80
2023-11-14T08:31:51.142Z,63.13
2023-11-14T08:36:53.950Z,63.56
2023-11-14T08:41:56.933Z,63.83
2023-11-14T08:46:59.877Z,63.78
2023-11-14T08:52:02.776Z,63.33
2023-11-14T08:57:06.010Z,63.06
2023-11-14T09:02:08.975Z,63.20
2023-11-14T09:07:12.268Z,62.75
2023-11-14T09:12:15.453Z,62.36
2023-11-14T09:17:18.241Z,62.31
2023-11-14T09:22:21.092Z,62.16
2023-11-14T09:27:27.414Z,61.87
2023-11-14T09:32:30.474Z,62.17
2023-11-14T09:37:33.418Z,62.43
2023-11-14T09:42:36.539Z,62.39
2023-11-14T09:47:39.410Z,62.22
2023-11-14T09:52:44.243Z,62.26
2023-11-14T09:57:49.856Z,62.48
2023-11-14T10:02:53.259Z,63.10
2023-11-14T10:07:56.796Z,64.01
2023-11-14T10:13:01.191Z,64.54
2023-11-14T10:18:04.342Z,65.65
2023-11-14T10:23:13.922Z,66.98
2023-11-14T10:28:23.226Z,67.31
2023-11-14T10:33:32.334Z,67.87
2023-11-14T10:38:35.812Z,68.56
2023-11-14T10:43:38.557Z,68.29
2023-11-14T10:48:41.596Z,68.84
2023-11-14T10:53:44.801Z,69.08
2023-11-14T10:58:48.743Z,68.56
2023-11-14T11:03:54.250Z,68.42
2023-11-14T11:08:58.057Z,68.03
2023-11-14T11:14:04.959Z,67.78
2023-11-14T11:19:08.102Z,68.00
2023-11-14T11:24:11.818Z,68.70
2023-11-14T11:29:34.668Z,69.24
2023-11-14T11:34:38.309Z,69.71
2023-11-14T11:39:59.818Z,70.29
2023-11-14T11:45:02.701Z,70.39
2023-11-14T11:50:25.701Z,70.09
2023-11-14T11:55:29.041Z,70.61
2023-11-14T12:00:31.829Z,70.15
2023-11-14T12:05:35.030Z,69.63
2023-11-14T12:10:38.823Z,69.13
2023-11-14T12:15:44.092Z,68.69
2023-11-14T12:20:47.188Z,68.94
2023-11-14T12:25:49.983Z,69.41
2023-11-14T12:31:02.125Z,69.56
2023-11-14T12:36:05.292Z,69.84
2023-11-14T12:41:27.721Z,69.43
2023-11-14T12:46:32.106Z,70.54
2023-11-14T12:51:35.044Z,71.15
2023-11-14T12:56:37.886Z,71.14
2023-11-14T13:01:41.850Z,71.51
2023-11-14T13:06:46.515Z,72.29
2023-11-14T13:11:50.191Z,71.20
2023-11-14T13:17:02.504Z,71.29
2023-11-14T13:22:07.994Z,71.63
2023-11-14T13:27:10.732Z,71.86
2023-11-14T13:32:14.646Z,71.42
2023-11-14T13:37:17.793Z,71.52
2023-11-14T13:42:20.606Z,71.37
2023-11-14T13:47:23.466Z,71.68
2023-11-14T13:52:28.641Z,71.23
2023-11-14T13:57:31.575Z,72.12
2023-11-14T14:02:36.155Z,72.30
2023-11-14T14:07:39.731Z,72.13
2023-11-14T14:12:48.897Z,71.38
2023-11-14T14:17:52.405Z,71.19
2023-11-14T14:22:56.657Z,71.06
2023-11-14T14:27:59.636Z,70.91
2023-11-14T14:33:02.429Z,70.93
2023-11-14T14:38:05.498Z,70.89
2023-11-14T14:43:08.686Z,70.80
2023-11-14T14:48:11.562Z,71.06
2023-11-14T14:53:14.503Z,70.95
2023-11-14T14:58:19.917Z,70.81
2023-11-14T15:03:23.232Z,70.61
2023-11-14T15:08:26.191Z,71.00
2023-11-14T15:13:29.000Z,70.83
2023-11-14T15:18:31.729Z,70.73
2023-11-14T15:23:34.441Z,70.57
2023-11-14T15:28:39.835Z,70.51
2023-11-14T15:33:44.242Z,70.37
2023-11-14T15:38:47.087Z,69.94
2023-11-14T15:43:49.946Z,69.87
2023-11-14T15:48:52.816Z,69.86
2023-11-14T15:53:55.679Z,69.90
2023-11-14T15:58:59.792Z,70.03
2023-11-14T16:04:04.358Z,69.77
2023-11-14T16:09:07.940Z,70.37
2023-11-14T16:14:10.846Z,70.67
2023-11-14T16:19:13.708Z,70.48
2023-11-14T16:24:16.427Z,70.36
2023-11-14T16:29:19.520Z,70.25
2023-11-14T16:34:22.425Z,70.23
2023-11-14T16:39:25.114Z,70.07
2023-11-14T16:44:27.936Z,69.57
2023-11-14T16:49:30.903Z,69.51
2023-11-14T16:54:33.642Z,69.32
2023-11-14T16:59:36.333Z,69.80
2023-11-14T17:04:40.467Z,70.18
2023-11-14T17:09:43.374Z,70.40
2023-11-14T17:14:46.489Z,71.26
2023-11-14T17:19:50.258Z,71.13
2023-11-14T17:24:53.019Z,70.98
2023-11-14T17:29:56.394Z,71.62
2023-11-14T17:35:01.276Z,72.28
2023-11-14T17:40:05.247Z,72.25
2023-11-14T17:45:08.049Z,72.18
2023-11-14T17:50:11.446Z,71.56
2023-11-14T17:55:14.550Z,71.99
2023-11-14T18:00:17.796Z,72.22
2023-11-14T18:05:20.748Z,71.91
2023-11-14T18:10:23.914Z,71.64
2023-11-14T18:15:27.834Z,71.62
2023-11-14T18:20:30.727Z,72.18
2023-11-14T18:25:33.736Z,71.77
2023-11-14T18:30:38.446Z,71.64
2023-11-14T18:35:44.899Z,72.43
2023-11-14T18:40:50.337Z,72.36
2023-11-14T18:45:53.581Z,72.46
2023-11-14T18:50:57.146Z,72.53
2023-11-14T18:56:00.041Z,71.83
2023-11-14T19:01:04.539Z,71.66
2023-11-14T19:06:09.560Z,71.56
2023-11-14T19:11:12.391Z,71.17
2023-11-14T19:16:15.279Z,71.41
2023-11-14T19:21:42.964Z,71.13
2023-11-14T19:26:46.364Z,71.03
2023-11-14T19:31:49.790Z,71.23
2023-11-14T19:36:53.178Z,71.03
2023-11-14T19:41:56.648Z,70.81
2023-11-14T19:46:59.542Z,70.64
2023-11-14T19:52:03.079Z,70.62
2023-11-14T19:57:05.887Z,70.42
2023-11-14T20:02:08.619Z,70.33
2023-11-14T20:07:11.482Z,69.79
2023-11-14T20:12:14.325Z,69.49
2023-11-14T20:17:17.414Z,69.80
2023-11-14T20:22:20.901Z,69.24
2023-11-14T20:27:23.625Z,69.77
2023-11-14T20:32:28.099Z,69.34
2023-11-14T20:37:31.006Z,70.07
2023-11-14T20:42:33.730Z,70.08
2023-11-14T20:47:36.642Z,69.97
2023-11-14T20:52:40.086Z,69.98
2023-11-14T20:57:42.990Z,69.72
2023-11-14T21:02:46.554Z,69.52
2023-11-14T21:07:49.441Z,69.29
2023-11-14T21:12:52.557Z,69.35
2023-11-14T21:17:55.405Z,69.74
2023-11-14T21:22:58.244Z,69.30
2023-11-14T21:28:01.024Z,69.51
2023-11-14T21:33:04.631Z,69.38
2023-11-14T21:38:08.040Z,70.03
2023-11-14T21:43:10.802Z,69.83
2023-11-14T21:48:14.417Z,69.71
2023-11-14T21:53:17.775Z,69.79
2023-11-14T21:58:20.607Z,69.78
2023-11-14T22:03:23.419Z,70.19
2023-11-14T22:08:26.382Z,70.14
2023-11-14T22:13:29.515Z,69.76
2023-11-14T22:18:32.250Z,69.32
2023-11-14T22:23:35.020Z,69.97
2023-11-14T22:28:37.825Z,70.11
2023-11-14T22:33:40.909Z,70.02
2023-11-14T22:38:43.684Z,69.89
2023-11-14T22:43:46.424Z,69.36
2023-11-14T22:48:49.274Z,68.94
2023-11-14T22:53:52.038Z,68.66
2023-11-14T22:58:54.881Z,68.82
2023-11-14T23:03:58.563Z,68.88
2023-11-14T23:09:01.597Z,69.24
2023-11-14T23:14:08.581Z,69.27
2023-11-14T23:19:11.367Z,69.11
2023-11-14T23:24:14.456Z,69.13
2023-11-14T23:29:17.317Z,69.32
2023-11-14T23:34:20.072Z,69.04
2023-11-14T23:39:22.764Z,68.94
2023-11-14T23:44:25.490Z,69.20
2023-11-14T23:49:28.215Z,69.24
2023-11-14T23:54:31.354Z,69.17
2023-11-14T23:59:34.102Z,68.99
